BERICHT 22/12/2019: De oude website is tijdelijk weer online! In 2020 zal er een volledig nieuwe site uitgerold worden, die nu volop in ontwikkeling is! Ondertussen blijven onderstaande metingen wel actueel!

Weerstation Zoersel Live Webcam Weerstation Zoersel Live Webcam


sateliet wolkenradar  


Doneren

CBI


onweer radar meer informatie blitzortung!


regen radar  rain snow radar


Enkele sfeerfotootjes...  

Het weer levert geen direct gevaar op.    Er zijn geen waarschuwingen afgegeven.

metar rapporten vliegvelden

   
EBAW - Antwerp
gewijzigd: 30-03-2020 21:50
grotendeels bewolkt  
grotendeels bewolkt  
   wind: noorden 14,8 km/h
wind: noorden 14,8 km/h
temperatuur: 7°C
voelt als: 4°C
dauwpunt: 2°C
vochtigheid: 71%
barometer: 1028 hPa
bewolking: grotendeels bewolkt
zicht: meer dan 10 km
bewolking: grotendeels bewolkt 3100 ft
EBAW 301950Z AUTO 35008KT 9999 // BKN031/// 07/02 Q1028
EBLG - Li├Ęge
gewijzigd: 30-03-2020 21:50
gedeeltelijk bewolkt  
gedeeltelijk bewolkt  
   wind: nnw 7,4 km/h
wind: nnw 7,4 km/h
temperatuur: 4°C
voelt als: 2°C
dauwpunt: 1°C
vochtigheid: 81%
barometer: 1027 hPa
bewolking: gedeeltelijk bewolkt
zicht: meer dan 10 km
bewolking: gedeeltelijk bewolkt 3200 ft
EBLG 301950Z 33004KT 9999 SCT032 04/01 Q1027 NOSIG
EBCV - Mons/Bergen
gewijzigd: 30-03-2020 21:55
licht bewolkt  
licht bewolkt  
   wind: noorden 13 km/h
wind: noorden 13 km/h
temperatuur: 4°C
voelt als: 1°C
dauwpunt: 1°C
vochtigheid: 81%
barometer: 1028 hPa
bewolking: licht bewolkt
zicht: meer dan 10 km
bewolking: licht bewolkt 3500 ft
EBCV 301955Z AUTO 36007KT 9999 FEW035/// 04/01 Q1028 BLU
EHBK - Maastricht
gewijzigd: 30-03-2020 21:55
licht bewolkt  
licht bewolkt  
   wind: nw 5,6 km/h
wind: nw 5,6 km/h
temperatuur: 5°C
voelt als: 4°C
dauwpunt: 1°C
vochtigheid: 76%
barometer: 1026 hPa
bewolking: licht bewolkt
zicht: meer dan 10 km
bewolking: licht bewolkt 4500 ft
EHBK 301955Z AUTO 31003KT 280V340 9999 FEW045 05/01 Q1026 NOSIG
ELLX - Luxemburg
gewijzigd: 30-03-2020 21:50
helder  
helder  
   wind: nno 16,7 km/h
wind: nno 16,7 km/h
temperatuur: 3°C
voelt als: -1°C
dauwpunt: -5°C
vochtigheid: 56%
barometer: 1025 hPa
zicht: meer dan 10 km
bewolking: helder
ELLX 301950Z 03009KT CAVOK 03/M05 Q1025 NOSIG
EBOS - Oostende
gewijzigd: 30-03-2020 21:50
gedeeltelijk bewolkt  
gedeeltelijk bewolkt  
   wind: nno 18,5 km/h
wind: nno 18,5 km/h
temperatuur: 6°C
voelt als: 3°C
dauwpunt: 3°C
vochtigheid: 81%
barometer: 1029 hPa
bewolking: gedeeltelijk bewolkt
zicht: meer dan 10 km
bewolking: licht bewolkt 1800 ft,
gedeeltelijk bewolkt 3200 ft
EBOS 301950Z 02010KT 9999 FEW018 SCT032 06/03 Q1029 NOSIG

script ontwikkeld door  Saratoga-weather.org aangepast voor de template door  Weerstation Leuven